createdAt,value
2023-02-19T00:00:09.068Z,3.70
2023-02-19T00:05:10.555Z,2.57
2023-02-19T00:10:12.075Z,3.07
2023-02-19T00:15:13.487Z,3.33
2023-02-19T00:20:14.909Z,3.30
2023-02-19T00:25:16.664Z,2.93
2023-02-19T00:30:18.139Z,3.23
2023-02-19T00:35:19.574Z,3.27
2023-02-19T00:40:21.094Z,4.60
2023-02-19T00:45:22.718Z,3.77
2023-02-19T00:50:24.202Z,3.27
2023-02-19T00:55:25.730Z,3.07
2023-02-19T01:00:27.190Z,3.57
2023-02-19T01:05:28.602Z,2.90
2023-02-19T01:10:30.167Z,2.50
2023-02-19T01:15:33.713Z,2.83
2023-02-19T01:20:35.187Z,3.23
2023-02-19T01:25:42.206Z,4.43
2023-02-19T01:30:43.643Z,3.17
2023-02-19T01:35:45.094Z,2.97
2023-02-19T01:41:00.991Z,2.90
2023-02-19T01:46:02.674Z,2.73
2023-02-19T01:51:09.417Z,2.80
2023-02-19T01:56:14.421Z,3.00
2023-02-19T02:01:15.954Z,2.63
2023-02-19T02:06:23.271Z,2.50
2023-02-19T02:11:25.046Z,2.70
2023-02-19T02:16:54.478Z,2.30
2023-02-19T02:22:12.532Z,2.47
2023-02-19T02:27:41.196Z,2.70
2023-02-19T02:33:18.331Z,2.67
2023-02-19T02:38:25.188Z,2.23
2023-02-19T02:43:26.666Z,2.37
2023-02-19T02:48:33.845Z,2.40
2023-02-19T02:54:03.054Z,2.47
2023-02-19T02:59:08.665Z,2.80
2023-02-19T03:04:15.702Z,2.70
2023-02-19T03:09:30.215Z,3.07
2023-02-19T03:15:12.914Z,3.87
2023-02-19T03:20:17.725Z,2.73
2023-02-19T03:25:42.405Z,3.00
2023-02-19T03:30:50.731Z,2.90
2023-02-19T03:36:06.315Z,3.20
2023-02-19T03:41:35.197Z,2.73
2023-02-19T03:46:51.757Z,2.70
2023-02-19T03:52:08.308Z,3.37
2023-02-19T03:57:24.969Z,3.70
2023-02-19T04:02:33.251Z,2.77
2023-02-19T04:07:38.116Z,3.13
2023-02-19T04:12:44.028Z,2.10
2023-02-19T04:17:50.918Z,1.80
2023-02-19T04:22:52.790Z,1.57
2023-02-19T04:27:54.732Z,1.80
2023-02-19T04:32:56.247Z,1.67
2023-02-19T04:37:57.734Z,1.27
2023-02-19T04:42:59.302Z,1.70
2023-02-19T04:48:00.788Z,1.50
2023-02-19T04:53:02.178Z,1.37
2023-02-19T04:58:03.654Z,1.03
2023-02-19T05:03:05.138Z,1.07
2023-02-19T05:08:06.565Z,0.90
2023-02-19T05:13:08.219Z,1.17
2023-02-19T05:18:09.701Z,1.47
2023-02-19T05:23:11.637Z,1.33
2023-02-19T05:28:19.263Z,1.50
2023-02-19T05:33:23.785Z,1.70
2023-02-19T05:38:25.595Z,1.35
2023-02-19T05:43:27.058Z,1.70
2023-02-19T05:48:28.531Z,2.33
2023-02-19T05:53:30.184Z,3.90
2023-02-19T05:58:31.655Z,5.70
2023-02-19T06:03:33.198Z,5.80
2023-02-19T06:08:34.671Z,4.93
2023-02-19T06:13:36.355Z,3.53
2023-02-19T06:18:40.349Z,2.80
2023-02-19T06:23:42.296Z,3.67
2023-02-19T06:28:45.123Z,3.60
2023-02-19T06:33:46.747Z,3.30
2023-02-19T06:38:48.232Z,2.80
2023-02-19T06:43:49.729Z,3.47
2023-02-19T06:48:51.164Z,3.33
2023-02-19T06:53:53.314Z,1.97
2023-02-19T06:58:56.580Z,2.27
2023-02-19T07:03:58.341Z,1.37
2023-02-19T07:09:00.402Z,1.77
2023-02-19T07:14:03.706Z,1.37
2023-02-19T07:19:05.227Z,1.90
2023-02-19T07:24:06.974Z,1.87
2023-02-19T07:29:09.637Z,3.50
2023-02-19T07:34:11.209Z,5.10
2023-02-19T07:39:15.588Z,5.37
2023-02-19T07:44:17.171Z,3.15
2023-02-19T07:49:18.770Z,2.97
2023-02-19T07:54:20.197Z,2.63
2023-02-19T07:59:21.718Z,2.07
2023-02-19T08:04:23.237Z,2.80
2023-02-19T08:09:24.824Z,2.23
2023-02-19T08:14:27.309Z,2.40
2023-02-19T08:19:28.808Z,2.57
2023-02-19T08:24:31.161Z,1.80
2023-02-19T08:29:32.675Z,1.63
2023-02-19T08:34:34.153Z,2.17
2023-02-19T08:39:35.604Z,1.20
2023-02-19T08:44:37.097Z,1.17
2023-02-19T08:49:38.560Z,1.33
2023-02-19T08:54:40.080Z,1.52
2023-02-19T08:59:41.576Z,1.33
2023-02-19T09:04:43.052Z,1.45
2023-02-19T09:09:44.504Z,7.65
2023-02-19T09:14:46.551Z,2.05
2023-02-19T09:19:50.065Z,1.25
2023-02-19T09:24:52.307Z,1.30
2023-02-19T09:29:55.054Z,0.90
2023-02-19T09:34:56.838Z,1.50
2023-02-19T09:39:58.320Z,0.82
2023-02-19T09:45:01.600Z,0.60
2023-02-19T09:50:07.607Z,0.80
2023-02-19T09:55:24.039Z,0.98
2023-02-19T10:00:28.975Z,1.20
2023-02-19T10:05:32.526Z,0.88
2023-02-19T10:10:36.769Z,1.13
2023-02-19T10:15:45.807Z,1.02
2023-02-19T10:20:49.634Z,1.70
2023-02-19T10:25:57.033Z,1.50
2023-02-19T10:31:00.702Z,1.08
2023-02-19T10:36:07.925Z,0.75
2023-02-19T10:41:17.540Z,0.95
2023-02-19T10:46:24.122Z,0.88
2023-02-19T10:51:35.773Z,0.65
2023-02-19T10:56:38.576Z,1.15
2023-02-19T11:01:58.818Z,1.20
2023-02-19T11:07:18.066Z,0.68
2023-02-19T11:12:31.837Z,1.40
2023-02-19T11:17:33.346Z,0.88
2023-02-19T11:22:40.237Z,1.05
2023-02-19T11:28:03.061Z,0.80
2023-02-19T11:33:16.493Z,0.70
2023-02-19T11:38:19.415Z,0.98
2023-02-19T11:43:39.637Z,0.65
2023-02-19T11:49:03.440Z,0.98
2023-02-19T11:54:34.208Z,0.70
2023-02-19T11:59:47.796Z,0.63
2023-02-19T12:05:04.149Z,2.80
2023-02-19T12:10:28.406Z,0.70
2023-02-19T12:15:48.462Z,0.50
2023-02-19T12:20:55.680Z,0.63
2023-02-19T12:26:18.902Z,1.17
2023-02-19T12:31:42.936Z,1.05
2023-02-19T12:37:02.384Z,0.70
2023-02-19T12:42:34.940Z,0.85
2023-02-19T12:47:40.261Z,0.60
2023-02-19T12:52:46.292Z,2.25
2023-02-19T12:57:48.618Z,1.20
2023-02-19T13:02:59.909Z,0.57
2023-02-19T13:08:07.643Z,1.02
2023-02-19T13:13:41.986Z,0.90
2023-02-19T13:18:48.751Z,0.82
2023-02-19T13:23:59.430Z,0.50
2023-02-19T13:29:21.931Z,0.47
2023-02-19T13:34:41.466Z,0.73
2023-02-19T13:39:49.931Z,0.57
2023-02-19T13:44:57.745Z,0.50
2023-02-19T13:50:07.771Z,0.85
2023-02-19T13:55:47.187Z,0.65
2023-02-19T14:00:50.938Z,1.10
2023-02-19T14:06:06.309Z,0.60
2023-02-19T14:11:08.734Z,0.70
2023-02-19T14:16:29.003Z,0.88
2023-02-19T14:21:38.899Z,0.73
2023-02-19T14:26:41.434Z,0.77
2023-02-19T14:31:45.837Z,0.70
2023-02-19T14:41:58.341Z,1.10
2023-02-19T14:47:02.684Z,1.15
2023-02-19T14:52:10.071Z,2.00
2023-02-19T14:57:25.924Z,1.35
2023-02-19T15:02:30.088Z,1.90
2023-02-19T15:07:33.849Z,2.30
2023-02-19T15:13:01.313Z,1.60
2023-02-19T15:18:05.513Z,1.90
2023-02-19T15:23:07.983Z,2.55
2023-02-19T15:28:25.131Z,2.22
2023-02-19T15:33:28.048Z,1.10
2023-02-19T15:38:29.912Z,1.58
2023-02-19T15:43:31.426Z,1.13
2023-02-19T15:49:22.284Z,1.52
2023-02-19T15:54:27.004Z,1.60
2023-02-19T15:59:36.515Z,1.48
2023-02-19T16:04:38.930Z,1.23
2023-02-19T16:09:40.370Z,1.45
2023-02-19T16:14:41.831Z,1.85
2023-02-19T16:19:43.584Z,1.20
2023-02-19T16:24:51.558Z,2.13
2023-02-19T16:29:53.292Z,1.98
2023-02-19T16:34:54.788Z,1.33
2023-02-19T16:40:16.867Z,1.13
2023-02-19T16:45:18.683Z,1.50
2023-02-19T16:50:23.152Z,1.80
2023-02-19T16:55:25.609Z,2.40
2023-02-19T17:00:29.621Z,1.83
2023-02-19T17:05:32.539Z,2.45
2023-02-19T17:10:34.028Z,2.13
2023-02-19T17:15:35.469Z,1.80
2023-02-19T17:20:36.895Z,1.73
2023-02-19T17:25:38.435Z,1.58
2023-02-19T17:30:40.472Z,1.55
2023-02-19T17:35:44.642Z,1.38
2023-02-19T17:40:46.189Z,1.38
2023-02-19T17:45:47.952Z,2.17
2023-02-19T17:50:50.264Z,2.17
2023-02-19T17:55:51.739Z,2.75
2023-02-19T18:00:53.481Z,2.78
2023-02-19T18:05:55.123Z,2.00
2023-02-19T18:10:56.605Z,2.47
2023-02-19T18:15:58.086Z,2.97
2023-02-19T18:20:59.585Z,2.53
2023-02-19T18:26:01.332Z,1.33
2023-02-19T18:31:03.110Z,1.77
2023-02-19T18:36:10.503Z,1.35
2023-02-19T18:41:13.863Z,1.10
2023-02-19T18:46:16.644Z,1.33
2023-02-19T18:51:18.262Z,1.77
2023-02-19T18:56:19.724Z,1.50
2023-02-19T19:01:21.326Z,1.65
2023-02-19T19:06:22.760Z,1.67
2023-02-19T19:11:25.775Z,1.97
2023-02-19T19:16:28.767Z,1.35
2023-02-19T19:21:31.420Z,1.10
2023-02-19T19:26:34.056Z,1.30
2023-02-19T19:31:36.391Z,1.20
2023-02-19T19:36:38.010Z,1.57
2023-02-19T19:41:39.527Z,1.83
2023-02-19T19:46:45.534Z,1.20
2023-02-19T19:51:47.405Z,1.60
2023-02-19T19:56:50.871Z,1.63
2023-02-19T20:01:54.787Z,1.80
2023-02-19T20:06:58.522Z,1.58
2023-02-19T20:12:00.032Z,1.93
2023-02-19T20:17:01.566Z,1.17
2023-02-19T20:22:03.049Z,1.53
2023-02-19T20:27:04.725Z,1.40
2023-02-19T20:32:06.348Z,1.00
2023-02-19T20:37:07.878Z,1.33
2023-02-19T20:42:09.384Z,1.70
2023-02-19T20:47:10.978Z,2.10
2023-02-19T20:52:16.337Z,1.77
2023-02-19T20:57:17.752Z,2.33
2023-02-19T21:02:22.227Z,1.75
2023-02-19T21:07:25.562Z,2.20
2023-02-19T21:12:27.074Z,2.22
2023-02-19T21:17:28.624Z,1.77
2023-02-19T21:22:30.102Z,2.00
2023-02-19T21:27:31.523Z,2.87
2023-02-19T21:32:33.071Z,1.80
2023-02-19T21:37:34.516Z,2.00
2023-02-19T21:42:35.954Z,1.42
2023-02-19T21:47:37.382Z,1.65
2023-02-19T21:52:38.839Z,2.15
2023-02-19T21:57:40.717Z,2.42
2023-02-19T22:02:42.515Z,2.17
2023-02-19T22:07:44.055Z,1.45
2023-02-19T22:12:45.585Z,2.13
2023-02-19T22:17:47.081Z,2.67
2023-02-19T22:22:49.770Z,1.88
2023-02-19T22:27:51.193Z,2.47
2023-02-19T22:32:52.775Z,2.40
2023-02-19T22:37:54.243Z,1.80
2023-02-19T22:42:55.706Z,1.52
2023-02-19T22:47:57.219Z,1.48
2023-02-19T22:52:59.156Z,2.10
2023-02-19T22:58:00.698Z,2.13
2023-02-19T23:03:02.569Z,2.20
2023-02-19T23:08:04.281Z,1.88
2023-02-19T23:13:05.708Z,1.70
2023-02-19T23:18:08.394Z,2.08
2023-02-19T23:23:10.447Z,2.22
2023-02-19T23:28:11.916Z,2.17
2023-02-19T23:33:13.678Z,2.23
2023-02-19T23:38:15.151Z,2.08
2023-02-19T23:43:16.702Z,2.15
2023-02-19T23:48:18.101Z,3.00
2023-02-19T23:53:19.723Z,2.90
2023-02-19T23:58:21.237Z,3.95
